createdAt,value
2018-06-22T00:01:46.558Z,81.60
2018-06-22T00:04:20.930Z,81.20
2018-06-22T00:06:55.226Z,81.90
2018-06-22T00:09:29.531Z,81.90
2018-06-22T00:12:03.793Z,81.50
2018-06-22T00:14:38.093Z,81.50
2018-06-22T00:17:12.351Z,81.80
2018-06-22T00:19:46.659Z,81.60
2018-06-22T00:22:20.972Z,81.60
2018-06-22T00:24:55.345Z,82.20
2018-06-22T00:27:29.569Z,82.70
2018-06-22T00:30:03.931Z,82.80
2018-06-22T00:32:38.282Z,83.50
2018-06-22T00:35:12.529Z,83.50
2018-06-22T00:37:46.650Z,83.40
2018-06-22T00:40:21.106Z,83.70
2018-06-22T00:45:29.394Z,84.20
2018-06-22T00:48:03.551Z,83.90
2018-06-22T00:50:37.871Z,83.20
2018-06-22T00:53:23.627Z,83.10
2018-06-22T00:55:57.913Z,82.70
2018-06-22T00:58:32.234Z,82.20
2018-06-22T01:01:06.390Z,83.00
2018-06-22T01:03:40.591Z,82.50
2018-06-22T01:06:15.005Z,82.40
2018-06-22T01:08:49.298Z,82.70
2018-06-22T01:11:23.673Z,82.40
2018-06-22T01:13:57.904Z,82.50
2018-06-22T01:16:32.238Z,82.30
2018-06-22T01:19:06.762Z,82.30
2018-06-22T01:21:41.542Z,82.10
2018-06-22T01:24:15.666Z,82.20
2018-06-22T01:26:50.063Z,81.80
2018-06-22T01:29:30.794Z,82.40
2018-06-22T01:32:05.014Z,82.00
2018-06-22T01:34:39.374Z,83.50
2018-06-22T01:39:48.044Z,83.50
2018-06-22T01:42:22.324Z,83.50
2018-06-22T01:44:56.641Z,83.20
2018-06-22T01:47:30.951Z,83.20
2018-06-22T01:50:05.334Z,83.20
2018-06-22T01:52:39.522Z,83.40
2018-06-22T01:57:48.061Z,83.00
2018-06-22T02:00:22.281Z,83.30
2018-06-22T02:02:56.691Z,83.30
2018-06-22T02:05:30.985Z,83.10
2018-06-22T02:08:05.451Z,83.60
2018-06-22T02:10:39.663Z,84.20
2018-06-22T02:13:14.132Z,85.70
2018-06-22T02:15:48.375Z,85.80
2018-06-22T02:18:22.652Z,85.70
2018-06-22T02:23:31.234Z,84.90
2018-06-22T02:26:05.779Z,85.10
2018-06-22T02:28:40.035Z,85.10
2018-06-22T02:31:14.387Z,84.50
2018-06-22T02:33:48.955Z,84.30
2018-06-22T02:36:23.237Z,84.50
2018-06-22T02:38:57.662Z,84.30
2018-06-22T02:41:32.088Z,84.40
2018-06-22T02:44:06.375Z,84.30
2018-06-22T02:46:40.687Z,84.50
2018-06-22T02:49:15.096Z,84.20
2018-06-22T02:51:49.494Z,83.80
2018-06-22T02:54:23.803Z,84.40
2018-06-22T02:56:58.050Z,83.90
2018-06-22T02:59:32.432Z,84.40
2018-06-22T03:02:06.750Z,84.30
2018-06-22T03:04:41.087Z,84.50
2018-06-22T03:07:15.319Z,85.00
2018-06-22T03:09:49.725Z,84.40
2018-06-22T03:12:23.986Z,84.90
2018-06-22T03:14:58.259Z,84.80
2018-06-22T03:17:32.695Z,84.70
2018-06-22T03:20:07.075Z,84.80
2018-06-22T03:25:15.344Z,84.80
2018-06-22T03:27:49.770Z,84.90
2018-06-22T03:30:24.355Z,85.00
2018-06-22T03:32:58.470Z,84.40
2018-06-22T03:35:32.883Z,84.40
2018-06-22T03:38:07.211Z,85.10
2018-06-22T03:40:41.570Z,84.50
2018-06-22T03:43:15.733Z,84.50
2018-06-22T03:45:50.073Z,84.40
2018-06-22T03:48:24.401Z,85.00
2018-06-22T03:50:58.833Z,85.30
2018-06-22T03:53:33.097Z,85.60
2018-06-22T03:56:07.818Z,85.60
2018-06-22T03:58:42.019Z,86.10
2018-06-22T04:01:16.290Z,86.50
2018-06-22T04:03:50.727Z,87.60
2018-06-22T04:06:24.994Z,87.20
2018-06-22T04:08:59.421Z,86.90
2018-06-22T04:11:33.746Z,88.50
2018-06-22T04:14:08.000Z,88.70
2018-06-22T04:16:42.299Z,89.40
2018-06-22T04:19:16.574Z,89.70
2018-06-22T04:21:50.776Z,90.00
2018-06-22T04:24:25.115Z,90.20
2018-06-22T04:26:59.498Z,90.20
2018-06-22T04:29:33.905Z,90.60
2018-06-22T04:32:08.343Z,90.50
2018-06-22T04:34:42.744Z,90.90
2018-06-22T04:37:17.146Z,91.30
2018-06-22T04:39:51.450Z,91.30
2018-06-22T04:42:25.818Z,91.30
2018-06-22T04:44:59.966Z,91.30
2018-06-22T04:47:34.252Z,91.50
2018-06-22T04:50:08.578Z,91.60
2018-06-22T04:52:43.031Z,91.70
2018-06-22T04:55:17.423Z,91.90
2018-06-22T04:57:51.629Z,92.00
2018-06-22T05:00:25.781Z,92.00
2018-06-22T05:03:00.114Z,92.70
2018-06-22T05:05:34.507Z,92.60
2018-06-22T05:08:08.816Z,92.80
2018-06-22T05:10:43.379Z,92.80
2018-06-22T05:13:17.662Z,92.30
2018-06-22T05:15:52.068Z,92.60
2018-06-22T05:18:26.543Z,92.80
2018-06-22T05:21:00.802Z,92.50
2018-06-22T05:23:35.116Z,92.50
2018-06-22T05:26:09.359Z,92.50
2018-06-22T05:28:43.690Z,92.20
2018-06-22T05:31:18.154Z,92.20
2018-06-22T05:33:52.303Z,92.30
2018-06-22T05:36:26.666Z,92.20
2018-06-22T05:39:01.079Z,92.20
2018-06-22T05:41:35.576Z,92.20
2018-06-22T05:44:10.219Z,91.90
2018-06-22T05:46:44.470Z,91.80
2018-06-22T05:49:18.781Z,91.90
2018-06-22T05:51:53.126Z,92.10
2018-06-22T05:54:27.690Z,92.10
2018-06-22T05:57:01.978Z,92.10
2018-06-22T05:59:36.178Z,92.60
2018-06-22T06:02:10.539Z,92.50
2018-06-22T06:04:44.970Z,92.90
2018-06-22T06:07:19.340Z,92.90
2018-06-22T06:09:53.690Z,92.70
2018-06-22T06:12:28.115Z,93.20
2018-06-22T06:15:02.367Z,92.70
2018-06-22T06:17:36.630Z,93.00
2018-06-22T06:20:11.478Z,92.50
2018-06-22T06:22:45.778Z,92.20
2018-06-22T06:27:54.102Z,92.00
2018-06-22T06:30:28.442Z,92.40
2018-06-22T06:33:02.766Z,92.70
2018-06-22T06:35:37.102Z,92.80
2018-06-22T06:38:11.456Z,92.50
2018-06-22T06:40:45.906Z,92.60
2018-06-22T06:43:20.234Z,92.20
2018-06-22T06:45:54.663Z,92.70
2018-06-22T06:48:28.971Z,92.20
2018-06-22T06:51:03.301Z,92.70
2018-06-22T06:53:37.706Z,92.70
2018-06-22T06:56:11.818Z,92.30
2018-06-22T06:58:46.291Z,92.10
2018-06-22T07:01:20.602Z,91.90
2018-06-22T07:03:54.971Z,92.20
2018-06-22T07:06:29.347Z,92.00
2018-06-22T07:09:04.083Z,92.10
2018-06-22T07:11:38.266Z,92.40
2018-06-22T07:14:12.603Z,92.00
2018-06-22T07:16:47.018Z,92.20
2018-06-22T07:19:21.389Z,92.10
2018-06-22T07:21:55.734Z,91.50
2018-06-22T07:24:30.204Z,92.20
2018-06-22T07:27:04.450Z,92.10
2018-06-22T07:29:38.800Z,91.80
2018-06-22T07:32:13.170Z,91.50
2018-06-22T07:34:47.435Z,91.80
2018-06-22T07:37:21.767Z,91.70
2018-06-22T07:39:56.103Z,90.30
2018-06-22T07:42:30.622Z,90.30
2018-06-22T07:45:04.924Z,90.80
2018-06-22T07:47:39.231Z,90.00
2018-06-22T07:50:13.431Z,90.00
2018-06-22T07:52:47.734Z,90.70
2018-06-22T07:55:22.040Z,90.70
2018-06-22T07:57:56.385Z,90.20
2018-06-22T08:00:30.642Z,90.40
2018-06-22T08:03:05.143Z,90.00
2018-06-22T08:05:39.595Z,90.00
2018-06-22T08:08:15.639Z,88.50
2018-06-22T08:10:49.980Z,88.50
2018-06-22T08:13:24.401Z,90.40
2018-06-22T08:15:58.603Z,90.60
2018-06-22T08:18:32.990Z,90.50
2018-06-22T08:21:07.272Z,90.90
2018-06-22T08:23:41.528Z,90.50
2018-06-22T08:26:15.902Z,91.10
2018-06-22T08:28:50.115Z,90.40
2018-06-22T08:31:24.363Z,90.30
2018-06-22T08:33:58.831Z,90.10
2018-06-22T08:36:32.974Z,90.90
2018-06-22T08:39:08.201Z,90.10
2018-06-22T08:41:42.408Z,89.60
2018-06-22T08:44:16.729Z,89.50
2018-06-22T08:46:51.034Z,86.60
2018-06-22T08:49:25.395Z,89.90
2018-06-22T08:51:59.809Z,89.10
2018-06-22T08:54:34.110Z,85.40
2018-06-22T08:57:08.282Z,83.40
2018-06-22T08:59:42.701Z,85.00
2018-06-22T09:02:17.086Z,84.60
2018-06-22T09:04:51.535Z,80.60
2018-06-22T09:07:26.035Z,81.10
2018-06-22T09:10:00.315Z,82.40
2018-06-22T09:12:34.787Z,82.00
2018-06-22T09:15:09.006Z,81.40
2018-06-22T09:17:43.259Z,79.80
2018-06-22T09:20:17.519Z,79.30
2018-06-22T09:22:51.815Z,78.10
2018-06-22T09:25:26.555Z,76.80
2018-06-22T09:28:00.854Z,77.50
2018-06-22T09:30:35.118Z,75.00
2018-06-22T09:33:09.409Z,76.10
2018-06-22T09:35:43.687Z,77.10
2018-06-22T09:38:18.114Z,77.80
2018-06-22T09:40:52.403Z,79.20
2018-06-22T09:43:26.770Z,81.90
2018-06-22T09:46:01.107Z,82.20
2018-06-22T09:48:35.385Z,83.00
2018-06-22T09:51:09.543Z,83.10
2018-06-22T09:53:43.879Z,85.00
2018-06-22T09:56:18.327Z,83.80
2018-06-22T09:58:52.678Z,85.80
2018-06-22T10:01:26.854Z,83.20
2018-06-22T10:04:01.239Z,84.40
2018-06-22T10:06:35.549Z,81.40
2018-06-22T10:09:11.682Z,80.50
2018-06-22T10:11:45.919Z,82.60
2018-06-22T10:14:20.302Z,79.60
2018-06-22T10:16:54.996Z,81.30
2018-06-22T10:19:29.330Z,79.70
2018-06-22T10:22:03.710Z,80.40
2018-06-22T10:24:38.134Z,83.40
2018-06-22T10:27:12.532Z,82.70
2018-06-22T10:29:46.761Z,84.50
2018-06-22T10:32:21.098Z,84.70
2018-06-22T10:34:55.475Z,81.60
2018-06-22T10:37:29.886Z,80.40
2018-06-22T10:40:04.611Z,80.60
2018-06-22T10:42:38.866Z,81.60
2018-06-22T10:45:13.162Z,80.70
2018-06-22T10:47:47.551Z,81.10
2018-06-22T10:50:21.791Z,81.10
2018-06-22T10:52:55.994Z,81.20
2018-06-22T10:55:30.304Z,79.80
2018-06-22T10:58:05.525Z,79.20
2018-06-22T11:00:39.633Z,78.00
2018-06-22T11:03:14.058Z,73.20
2018-06-22T11:05:48.335Z,74.10
2018-06-22T11:08:22.580Z,75.80
2018-06-22T11:10:56.955Z,78.30
2018-06-22T11:13:31.536Z,78.40
2018-06-22T11:16:06.079Z,77.70
2018-06-22T11:18:40.254Z,78.30
2018-06-22T11:21:14.492Z,77.90
2018-06-22T11:23:48.750Z,75.90
2018-06-22T11:26:23.007Z,77.50
2018-06-22T11:28:57.358Z,77.40
2018-06-22T11:31:31.654Z,76.30
2018-06-22T11:34:06.051Z,75.20
2018-06-22T11:36:40.364Z,78.30
2018-06-22T11:39:14.666Z,80.00
2018-06-22T11:41:49.054Z,81.10
2018-06-22T11:44:23.258Z,80.70
2018-06-22T11:46:57.602Z,83.70
2018-06-22T11:49:31.946Z,83.50
2018-06-22T11:52:06.419Z,81.10
2018-06-22T11:54:40.707Z,80.90
2018-06-22T11:57:15.074Z,82.20
2018-06-22T11:59:49.318Z,85.10
2018-06-22T12:02:23.594Z,80.00
2018-06-22T12:04:57.873Z,80.30
2018-06-22T12:07:32.150Z,80.00
2018-06-22T12:10:06.570Z,80.60
2018-06-22T12:12:40.860Z,79.10
2018-06-22T12:15:15.137Z,77.80
2018-06-22T12:17:49.500Z,76.00
2018-06-22T12:20:23.791Z,79.10
2018-06-22T12:22:58.074Z,74.00
2018-06-22T12:25:32.369Z,71.90
2018-06-22T12:28:06.742Z,69.80
2018-06-22T12:33:15.149Z,69.60
2018-06-22T12:35:49.330Z,67.20
2018-06-22T12:38:23.523Z,67.30
2018-06-22T12:40:57.991Z,65.90
2018-06-22T12:43:32.301Z,66.80
2018-06-22T12:46:06.719Z,64.90
2018-06-22T12:48:41.080Z,65.60
2018-06-22T12:51:15.327Z,66.90
2018-06-22T12:53:49.646Z,67.20
2018-06-22T12:56:23.902Z,65.50
2018-06-22T12:58:58.198Z,67.50
2018-06-22T13:01:32.498Z,62.40
2018-06-22T13:04:06.989Z,63.00
2018-06-22T13:06:41.204Z,61.10
2018-06-22T13:09:15.465Z,62.50
2018-06-22T13:11:49.802Z,59.10
2018-06-22T13:14:23.962Z,58.70
2018-06-22T13:16:58.200Z,59.40
2018-06-22T13:22:06.591Z,59.70
2018-06-22T13:24:40.870Z,57.00
2018-06-22T13:27:15.034Z,57.80
2018-06-22T13:29:49.397Z,59.00
2018-06-22T13:32:23.798Z,60.20
2018-06-22T13:34:58.214Z,59.40
2018-06-22T13:37:32.610Z,56.70
2018-06-22T13:40:06.915Z,56.80
2018-06-22T13:42:41.160Z,57.10
2018-06-22T13:45:15.474Z,56.10
2018-06-22T13:47:49.795Z,55.80
2018-06-22T13:50:24.177Z,56.90
2018-06-22T13:52:58.426Z,54.70
2018-06-22T13:55:32.858Z,55.90
2018-06-22T13:58:07.237Z,55.20
2018-06-22T14:00:41.555Z,55.90
2018-06-22T14:03:18.702Z,54.70
2018-06-22T14:05:58.407Z,54.50
2018-06-22T14:08:32.522Z,55.00
2018-06-22T14:11:06.935Z,55.10
2018-06-22T14:13:43.038Z,55.40
2018-06-22T14:16:17.351Z,56.70
2018-06-22T14:18:51.476Z,57.90
2018-06-22T14:21:25.706Z,59.00
2018-06-22T14:24:00.013Z,59.20
2018-06-22T14:26:34.294Z,61.20
2018-06-22T14:29:08.572Z,59.40
2018-06-22T14:31:43.060Z,58.20
2018-06-22T14:34:17.278Z,57.20
2018-06-22T14:36:51.551Z,56.30
2018-06-22T14:39:25.915Z,56.20
2018-06-22T14:42:00.186Z,56.70
2018-06-22T14:44:34.453Z,57.20
2018-06-22T14:47:08.749Z,57.90
2018-06-22T14:49:43.157Z,57.20
2018-06-22T14:52:17.434Z,56.00
2018-06-22T14:54:57.215Z,57.20
2018-06-22T14:57:36.941Z,56.70
2018-06-22T15:00:16.526Z,56.60
2018-06-22T15:03:54.614Z,54.40
2018-06-22T15:06:34.199Z,54.50
2018-06-22T15:09:09.551Z,50.90
2018-06-22T15:11:43.798Z,51.70
2018-06-22T15:14:18.059Z,51.50
2018-06-22T15:16:52.229Z,52.00
2018-06-22T15:19:26.462Z,52.30
2018-06-22T15:22:00.734Z,53.50
2018-06-22T15:27:10.562Z,51.60
2018-06-22T15:29:45.026Z,48.90
2018-06-22T15:32:19.312Z,46.70
2018-06-22T15:34:58.863Z,46.80
2018-06-22T15:40:17.986Z,47.00
2018-06-22T15:42:57.610Z,47.20
2018-06-22T15:45:37.198Z,47.70
2018-06-22T15:48:16.741Z,47.70
2018-06-22T15:50:56.302Z,48.10
2018-06-22T15:53:35.802Z,46.40
2018-06-22T15:56:10.860Z,47.70
2018-06-22T15:58:45.079Z,48.10
2018-06-22T16:01:19.475Z,47.30
2018-06-22T16:03:59.042Z,49.60
2018-06-22T16:06:33.399Z,49.20
2018-06-22T16:09:08.977Z,49.40
2018-06-22T16:11:43.325Z,50.90
2018-06-22T16:14:22.984Z,52.40
2018-06-22T16:17:02.758Z,54.60
2018-06-22T16:19:42.306Z,55.20
2018-06-22T16:22:21.947Z,54.30
2018-06-22T16:25:01.675Z,54.10
2018-06-22T16:27:40.582Z,54.50
2018-06-22T16:30:14.829Z,53.30
2018-06-22T16:32:49.102Z,54.10
2018-06-22T16:35:23.836Z,52.40
2018-06-22T16:37:58.110Z,51.90
2018-06-22T16:40:32.262Z,52.20
2018-06-22T16:43:06.523Z,52.20
2018-06-22T16:45:40.846Z,51.80
2018-06-22T16:48:15.150Z,51.90
2018-06-22T16:50:49.559Z,52.30
2018-06-22T16:53:23.936Z,53.00
2018-06-22T16:55:58.374Z,52.60
2018-06-22T16:58:37.555Z,52.70
2018-06-22T17:01:12.134Z,54.20
2018-06-22T17:03:46.350Z,54.60
2018-06-22T17:06:20.645Z,55.70
2018-06-22T17:09:00.395Z,56.10
2018-06-22T17:11:39.926Z,56.00
2018-06-22T17:14:19.578Z,56.30
2018-06-22T17:19:04.273Z,56.90
2018-06-22T17:21:38.424Z,58.10
2018-06-22T17:24:12.711Z,58.50
2018-06-22T17:26:47.014Z,58.70
2018-06-22T17:29:21.290Z,58.80
2018-06-22T17:31:55.722Z,59.20
2018-06-22T17:34:30.097Z,58.80
2018-06-22T17:37:04.429Z,58.70
2018-06-22T17:39:38.722Z,57.40
2018-06-22T17:42:13.010Z,58.00
2018-06-22T17:44:47.286Z,57.30
2018-06-22T17:47:21.706Z,56.90
2018-06-22T17:49:59.374Z,57.30
2018-06-22T17:52:33.802Z,57.00
2018-06-22T17:55:08.158Z,57.40
2018-06-22T17:57:42.418Z,58.00
2018-06-22T18:00:22.074Z,57.60
2018-06-22T18:03:01.602Z,57.50
2018-06-22T18:05:41.130Z,58.00
2018-06-22T18:08:20.786Z,58.40
2018-06-22T18:11:00.319Z,59.00
2018-06-22T18:13:34.591Z,59.40
2018-06-22T18:18:42.834Z,58.80
2018-06-22T18:21:17.110Z,59.40
2018-06-22T18:23:51.391Z,59.00
2018-06-22T18:26:25.558Z,58.20
2018-06-22T18:28:59.948Z,58.40
2018-06-22T18:31:34.522Z,58.60
2018-06-22T18:34:08.887Z,58.60
2018-06-22T18:39:17.369Z,59.70
2018-06-22T18:41:51.532Z,60.20
2018-06-22T18:44:26.158Z,60.10
2018-06-22T18:47:00.539Z,61.20
2018-06-22T18:49:34.801Z,61.20
2018-06-22T18:52:14.502Z,62.30
2018-06-22T18:54:54.134Z,62.40
2018-06-22T18:57:33.650Z,62.00
2018-06-22T19:00:13.347Z,61.40
2018-06-22T19:02:52.802Z,62.60
2018-06-22T19:05:26.999Z,62.00
2018-06-22T19:08:01.267Z,62.40
2018-06-22T19:10:35.561Z,61.90
2018-06-22T19:15:43.854Z,62.20
2018-06-22T19:18:18.196Z,62.60
2018-06-22T19:20:52.391Z,62.50
2018-06-22T19:23:26.710Z,63.50
2018-06-22T19:26:01.002Z,63.50
2018-06-22T19:28:35.246Z,63.40
2018-06-22T19:31:09.687Z,64.40
2018-06-22T19:36:18.218Z,63.90
2018-06-22T19:38:52.486Z,64.10
2018-06-22T19:41:26.785Z,63.60
2018-06-22T19:44:06.570Z,64.00
2018-06-22T19:46:46.234Z,64.00
2018-06-22T19:49:25.750Z,64.30
2018-06-22T19:54:09.245Z,64.00
2018-06-22T19:56:43.446Z,64.60
2018-06-22T19:59:17.742Z,64.50
2018-06-22T20:01:52.159Z,64.50
2018-06-22T20:04:26.561Z,64.90
2018-06-22T20:07:00.806Z,64.70
2018-06-22T20:09:35.027Z,64.40
2018-06-22T20:12:09.416Z,65.30
2018-06-22T20:14:43.658Z,65.60
2018-06-22T20:17:18.211Z,65.30
2018-06-22T20:19:52.577Z,65.50
2018-06-22T20:22:26.926Z,66.00
2018-06-22T20:25:06.598Z,65.90
2018-06-22T20:27:40.818Z,66.60
2018-06-22T20:30:15.247Z,66.20
2018-06-22T20:32:49.545Z,66.20
2018-06-22T20:35:29.282Z,66.20
2018-06-22T20:38:09.367Z,66.30
2018-06-22T20:40:48.894Z,67.90
2018-06-22T20:43:28.394Z,67.60
2018-06-22T20:46:02.574Z,67.90
2018-06-22T20:48:42.124Z,67.30
2018-06-22T20:51:16.306Z,68.70
2018-06-22T20:53:50.565Z,68.40
2018-06-22T20:56:25.027Z,68.10
2018-06-22T20:58:59.122Z,68.50
2018-06-22T21:01:33.435Z,68.30
2018-06-22T21:04:07.688Z,68.20
2018-06-22T21:06:42.101Z,68.80
2018-06-22T21:09:16.426Z,68.90
2018-06-22T21:11:50.968Z,68.60
2018-06-22T21:14:25.230Z,68.70
2018-06-22T21:16:59.348Z,68.00
2018-06-22T21:19:34.527Z,68.70
2018-06-22T21:22:09.510Z,69.10
2018-06-22T21:24:43.768Z,69.30
2018-06-22T21:27:23.386Z,69.50
2018-06-22T21:30:02.835Z,69.80
2018-06-22T21:32:42.393Z,70.50
2018-06-22T21:35:22.241Z,70.70
2018-06-22T21:38:01.795Z,70.70
2018-06-22T21:40:35.996Z,71.00
2018-06-22T21:43:10.278Z,71.10
2018-06-22T21:48:18.842Z,71.30
2018-06-22T21:50:53.158Z,71.50
2018-06-22T21:53:27.521Z,71.80
2018-06-22T21:56:01.671Z,72.20
2018-06-22T21:58:36.022Z,72.60
2018-06-22T22:01:10.470Z,73.20
2018-06-22T22:03:44.667Z,73.80
2018-06-22T22:06:19.023Z,74.30
2018-06-22T22:08:53.291Z,74.70
2018-06-22T22:11:32.966Z,74.90
2018-06-22T22:14:07.168Z,75.00
2018-06-22T22:16:41.419Z,75.70
2018-06-22T22:19:15.706Z,74.80
2018-06-22T22:21:50.135Z,75.80
2018-06-22T22:24:24.495Z,75.70
2018-06-22T22:26:58.736Z,75.90
2018-06-22T22:29:32.999Z,75.20
2018-06-22T22:32:07.246Z,75.70
2018-06-22T22:34:41.581Z,75.60
2018-06-22T22:37:15.740Z,75.80
2018-06-22T22:39:49.986Z,76.00
2018-06-22T22:42:24.257Z,76.30
2018-06-22T22:44:58.525Z,76.10
2018-06-22T22:47:32.925Z,76.00
2018-06-22T22:50:07.108Z,75.80
2018-06-22T22:52:41.396Z,75.90
2018-06-22T22:55:15.724Z,75.80
2018-06-22T22:57:49.850Z,76.20
2018-06-22T23:00:24.194Z,76.00
2018-06-22T23:02:58.502Z,76.50
2018-06-22T23:05:32.726Z,76.10
2018-06-22T23:08:06.869Z,76.00
2018-06-22T23:10:41.270Z,76.60
2018-06-22T23:13:15.614Z,76.90
2018-06-22T23:15:49.742Z,76.60
2018-06-22T23:18:28.966Z,76.30
2018-06-22T23:21:03.311Z,76.60
2018-06-22T23:23:39.190Z,76.40
2018-06-22T23:26:13.492Z,76.70
2018-06-22T23:28:47.770Z,76.60
2018-06-22T23:31:21.997Z,77.40
2018-06-22T23:33:56.295Z,76.80
2018-06-22T23:36:30.639Z,77.20
2018-06-22T23:39:07.962Z,77.20
2018-06-22T23:41:42.029Z,77.00
2018-06-22T23:44:16.387Z,76.80
2018-06-22T23:46:50.663Z,76.80
2018-06-22T23:49:24.946Z,77.00
2018-06-22T23:51:59.266Z,78.10
2018-06-22T23:54:33.534Z,77.80
2018-06-22T23:57:07.786Z,77.70
2018-06-22T23:59:41.940Z,78.30
